Time;durP1;ratioP1;P1;durP2;ratioP2;P2;SDS_P1;SDS_P2;PMS_P1;PMS_P2;Temp;Humidity;BMP_temperature;BMP_pressure;BME280_temperature;BME280_humidity;BME280_pressure;Samples;Min_cycle;Max_cycle;Signal;HPM_P1;HPM_P2
2022/12/12 00:07:40;;;;;;;4.13;2.83;;;;;;;;;;21115396;28;20216;-68
2022/12/12 00:17:42;;;;;;;3.73;2.17;;;;;;;;;;21148133;28;20220;-68
2022/12/12 00:27:44;;;;;;;4.43;2.77;;;;;;;;;;21113777;28;20219;-68
2022/12/12 00:37:47;;;;;;;4.40;2.83;;;;;;;;;;21129852;28;20265;-68
2022/12/12 00:47:49;;;;;;;2.13;1.50;;;;;;;;;;21128439;28;20597;-69
2022/12/12 00:57:51;;;;;;;4.03;1.67;;;;;;;;;;21111503;28;20212;-68
2022/12/12 01:07:53;;;;;;;4.80;1.50;;;;;;;;;;21111002;28;20224;-68
2022/12/12 01:17:55;;;;;;;2.70;1.60;;;;;;;;;;21143406;28;20238;-68
2022/12/12 01:27:58;;;;;;;3.07;2.53;;;0.20;99.90;;;;;;21142152;28;20296;-68
2022/12/12 01:38:00;;;;;;;3.53;2.03;;;;;;;;;;21125054;28;20224;-68
2022/12/12 01:48:02;;;;;;;3.53;2.43;;;;;;;;;;21123739;28;20561;-68
2022/12/12 01:58:04;;;;;;;1.70;1.50;;;;;;;;;;21123021;28;20261;-68
2022/12/12 02:08:07;;;;;;;2.80;1.83;;;;;;;;;;21105773;28;20220;-68
2022/12/12 02:18:08;;;;;;;2.30;1.40;;;;;;;;;;21102977;28;20546;-68
2022/12/12 02:28:16;;;;;;;3.47;2.27;;;;;;;;;;21116325;28;20706;-68
2022/12/12 02:38:32;;;;;;;1.63;1.40;;;-0.10;99.90;;;;;;21137476;28;20208;-68
2022/12/12 02:48:44;;;;;;;2.47;1.03;;;;;;;;;;21091166;28;20600;-68
2022/12/12 02:58:46;;;;;;;2.17;1.43;;;;;;;;;;21119249;28;20202;-68
2022/12/12 03:09:09;;;;;;;4.23;2.00;;;;;;;;;;21116195;28;20253;-68
2022/12/12 03:19:14;;;;;;;2.40;1.43;;;;;;;;;;21136054;28;20241;-68
2022/12/12 03:29:19;;;;;;;2.73;2.20;;;;;;;;;;21066621;28;20204;-68
2022/12/12 03:39:27;;;;;;;2.70;2.10;;;;;;;;;;21049516;28;20564;-68
2022/12/12 03:49:46;;;;;;;3.23;1.93;;;-0.50;99.90;;;;;;21066343;28;20224;-68
2022/12/12 04:00:02;;;;;;;2.00;1.57;;;-0.40;99.90;;;;;;21032259;28;20250;-68
2022/12/12 04:31:11;;;;;;;3.40;1.87;;;-0.40;99.90;;;;;;21042115;28;20262;-67
2022/12/12 04:41:15;;;;;;;1.53;1.30;;;-0.70;99.90;;;;;;21020650;28;20216;-67
2022/12/12 04:51:19;;;;;;;3.03;1.73;;;;;;;;;;21096553;28;20204;-68
2022/12/12 05:01:33;;;;;;;2.30;1.53;;;;;;;;;;21144428;28;20220;-68
2022/12/12 05:11:35;;;;;;;1.80;1.67;;;;;;;;;;21048314;28;20266;-67
2022/12/12 05:21:37;;;;;;;2.53;2.00;;;;;;;;;;21040417;28;20224;-67
2022/12/12 05:31:39;;;;;;;2.93;2.50;;;;;;;;;;21036141;28;20550;-67
2022/12/12 05:41:41;;;;;;;4.70;2.87;;;;;;;;;;21023985;28;20220;-67
2022/12/12 05:51:43;;;;;;;2.47;1.80;;;;;;;;;;21039927;28;20213;-67
2022/12/12 06:01:45;;;;;;;4.33;3.10;;;;;;;;;;21055725;28;20707;-67
2022/12/12 06:11:47;;;;;;;1.40;1.30;;;;;;;;;;21021913;28;20204;-67
2022/12/12 06:21:49;;;;;;;2.17;1.83;;;;;;;;;;21037948;28;20228;-67
2022/12/12 06:31:51;;;;;;;2.00;1.67;;;;;;;;;;21006804;22;20237;-82
2022/12/12 06:41:53;;;;;;;1.77;1.40;;;;;;;;;;20889360;28;20221;-84
2022/12/12 06:51:54;;;;;;;2.77;1.87;;;;;;;;;;20873536;28;20197;-82
2022/12/12 07:01:56;;;;;;;2.33;1.80;;;-0.90;99.90;;;;;;20857056;28;20259;-82
2022/12/12 07:11:58;;;;;;;3.07;2.80;;;;;;;;;;20889187;28;20247;-81
2022/12/12 07:22:01;;;;;;;4.07;2.13;;;;;;;;;;20856020;28;20291;-82
2022/12/12 07:32:03;;;;;;;2.77;2.10;;;;;;;;;;20883734;28;20386;-82
2022/12/12 07:42:05;;;;;;;0.77;0.73;;;;;;;;;;21015762;28;20222;-82
2022/12/12 07:52:07;;;;;;;1.50;1.37;;;;;;;;;;20958038;28;20767;-83
2022/12/12 08:02:09;;;;;;;1.47;1.30;;;;;;;;;;20949000;28;20247;-82
2022/12/12 08:12:11;;;;;;;1.70;1.37;;;;;;;;;;20988171;28;20212;-83
2022/12/12 08:22:13;;;;;;;1.40;1.27;;;;;;;;;;20984667;28;20221;-82
2022/12/12 08:32:15;;;;;;;1.40;1.20;;;;;;;;;;20901662;28;20228;-82
2022/12/12 08:42:16;;;;;;;2.83;2.57;;;;;;;;;;20953380;28;20293;-82
2022/12/12 08:52:19;;;;;;;1.70;1.13;;;;;;;;;;20965913;28;20675;-82
2022/12/12 09:02:20;;;;;;;2.17;1.97;;;;;;;;;;20934932;28;20645;-82
2022/12/12 09:12:22;;;;;;;1.00;0.73;;;;;;;;;;20986750;28;20218;-83
2022/12/12 09:22:24;;;;;;;3.10;1.90;;;;;;;;;;20967528;28;20730;-82
2022/12/12 09:32:26;;;;;;;2.50;2.20;;;;;;;;;;21014007;28;20237;-83
2022/12/12 09:42:28;;;;;;;2.00;1.50;;;;;;;;;;20982828;28;20225;-82
2022/12/12 09:52:34;;;;;;;2.50;1.43;;;;;;;;;;21052236;28;20224;-84
2022/12/12 10:02:39;;;;;;;1.10;1.00;;;;;;;;;;20923773;28;20260;-84
2022/12/12 10:12:44;;;;;;;1.53;1.37;;;-0.40;99.90;;;;;;20925204;28;20668;-81
2022/12/12 10:22:56;;;;;;;2.00;1.50;;;-0.20;99.90;;;;;;20869945;28;20275;-82
2022/12/12 10:33:12;;;;;;;2.97;2.20;;;;;;;;;;20939383;28;20232;-82
2022/12/12 10:43:21;;;;;;;2.00;1.10;;;;;;;;;;20980438;28;20274;-84
2022/12/12 10:53:23;;;;;;;2.90;1.93;;;;;;;;;;20762273;23;20234;-66
2022/12/12 11:03:43;;;;;;;2.40;1.37;;;0.00;99.90;;;;;;20762948;28;20230;-66
2022/12/12 11:13:49;;;;;;;1.60;1.40;;;;;;;;;;20721630;28;20244;-65
2022/12/12 11:23:52;;;;;;;1.33;1.10;;;;;;;;;;20763503;28;20222;-65
2022/12/12 11:33:57;;;;;;;2.70;1.70;;;0.00;99.90;;;;;;20801136;28;20706;-65
2022/12/12 11:44:00;;;;;;;1.43;1.00;;;;;;;;;;20749435;28;20239;-65
2022/12/12 11:54:13;;;;;;;3.53;2.17;;;0.90;99.90;;;;;;20653516;28;20236;-66
2022/12/12 12:04:18;;;;;;;3.53;1.80;;;;;;;;;;20637532;28;20231;-66
2022/12/12 12:14:26;;;;;;;3.33;1.83;;;;;;;;;;20687201;28;20214;-66
2022/12/12 12:25:02;;;;;;;3.37;2.13;;;1.30;99.90;;;;;;20776410;28;20364;-66
2022/12/12 12:35:13;;;;;;;1.73;1.57;;;;;;;;;;20740439;28;20253;-66
2022/12/12 12:45:19;;;;;;;2.63;1.80;;;;;;;;;;20796126;28;20234;-67
2022/12/12 12:55:23;;;;;;;3.00;1.60;;;;;;;;;;20942427;23;20249;-70
2022/12/12 13:06:07;;;;;;;1.87;1.30;;;1.30;99.90;;;;;;21141277;28;20227;-69
2022/12/12 13:16:25;;;;;;;3.57;1.97;;;1.30;99.90;;;;;;20999816;28;20211;-69
2022/12/12 13:26:50;;;;;;;3.27;2.27;;;1.20;99.90;;;;;;21078545;28;20220;-68
2022/12/12 13:36:53;;;;;;;3.00;2.13;;;;;;;;;;21067476;28;20248;-69
2022/12/12 13:46:55;;;;;;;1.93;1.43;;;;;;;;;;21068160;28;20244;-69
2022/12/12 13:56:56;;;;;;;1.87;1.27;;;;;;;;;;21068883;28;20212;-68
2022/12/12 14:07:06;;;;;;;3.03;2.17;;;;;;;;;;21068786;28;20220;-69
2022/12/12 14:17:21;;;;;;;4.13;2.40;;;;;;;;;;21064563;28;20707;-69
2022/12/12 14:27:42;;;;;;;6.63;2.23;;;;;;;;;;21101239;28;20215;-67
2022/12/12 14:37:53;;;;;;;2.83;2.33;;;;;;;;;;21146364;28;20276;-70
2022/12/12 14:48:23;;;;;;;2.23;1.90;;;0.30;99.90;;;;;;21137179;28;20269;-68
2022/12/12 14:58:27;;;;;;;2.10;1.53;;;;;;;;;;21068775;28;20283;-68
2022/12/12 15:08:29;;;;;;;6.47;2.10;;;;;;;;;;21168160;28;20295;-69
2022/12/12 15:18:30;;;;;;;3.10;2.03;;;0.00;99.90;;;;;;21125513;28;20554;-69
2022/12/12 15:28:32;;;;;;;2.67;1.80;;;;;;;;;;21178713;28;20215;-69
2022/12/12 15:38:34;;;;;;;2.63;2.03;;;;;;;;;;21096458;28;20216;-69
2022/12/12 15:48:36;;;;;;;2.50;1.80;;;;;;;;;;21081812;28;20203;-69
2022/12/12 15:58:42;;;;;;;3.40;2.23;;;;;;;;;;21056555;28;20289;-69
2022/12/12 16:08:47;;;;;;;3.00;2.67;;;;;;;;;;21037682;28;20228;-68
2022/12/12 16:18:49;;;;;;;3.73;2.90;;;;;;;;;;21073574;28;20209;-68
2022/12/12 16:28:50;;;;;;;3.10;2.23;;;;;;;;;;21103787;28;20225;-69
2022/12/12 16:38:52;;;;;;;2.90;2.63;;;;;;;;;;21107234;28;20208;-69
2022/12/12 16:48:56;;;;;;;3.93;2.87;;;;;;;;;;21066978;28;20282;-69
2022/12/12 16:58:58;;;;;;;3.23;2.07;;;;;;;;;;21052115;28;20313;-69
2022/12/12 17:08:59;;;;;;;4.93;3.07;;;;;;;;;;21020951;28;20761;-69
2022/12/12 17:19:01;;;;;;;2.90;2.60;;;;;;;;;;21038413;28;20297;-69
2022/12/12 17:29:03;;;;;;;3.37;2.17;;;;;;;;;;21032624;28;20213;-69
2022/12/12 17:39:05;;;;;;;2.63;2.10;;;;;;;;;;21044795;28;20209;-69
2022/12/12 17:49:07;;;;;;;4.53;3.80;;;;;;;;;;21061543;28;20217;-69
2022/12/12 17:59:08;;;;;;;5.50;4.07;;;;;;;;;;21060292;28;20768;-69
2022/12/12 18:09:10;;;;;;;6.00;5.30;;;;;;;;;;21068857;28;20289;-69
2022/12/12 18:19:12;;;;;;;2.43;1.90;;;;;;;;;;21026899;28;20675;-69
2022/12/12 18:29:13;;;;;;;3.17;2.53;;;;;;;;;;21061143;28;20212;-69
2022/12/12 18:39:16;;;;;;;2.90;1.97;;;;;;;;;;21109129;28;20236;-68
2022/12/12 18:49:18;;;;;;;3.07;2.27;;;-0.60;99.90;;;;;;21007714;28;20269;-69
2022/12/12 18:59:21;;;;;;;3.00;2.03;;;;;;;;;;21062820;28;20258;-69
2022/12/12 19:09:22;;;;;;;1.90;1.57;;;;;;;;;;21046399;28;20265;-68
2022/12/12 19:19:25;;;;;;;2.90;2.27;;;;;;;;;;21089840;28;20719;-68
2022/12/12 19:29:26;;;;;;;3.63;2.70;;;;;;;;;;21136231;28;20216;-69
2022/12/12 19:39:29;;;;;;;4.07;3.33;;;;;;;;;;21046259;28;20232;-69
2022/12/12 19:49:30;;;;;;;4.43;2.60;;;;;;;;;;21099088;28;20308;-69
2022/12/12 19:59:32;;;;;;;2.27;1.93;;;;;;;;;;21144164;28;20331;-69
2022/12/12 20:09:35;;;;;;;2.27;2.07;;;;;;;;;;21103968;28;20224;-68
2022/12/12 20:19:38;;;;;;;2.20;1.87;;;;;;;;;;21069620;28;20200;-69
2022/12/12 20:29:40;;;;;;;2.63;2.13;;;;;;;;;;21057129;22;20282;-64
2022/12/12 20:39:42;;;;;;;2.13;1.93;;;;;;;;;;20822905;28;20218;-64
2022/12/12 20:49:47;;;;;;;2.50;2.20;;;;;;;;;;20874399;28;20232;-64
2022/12/12 20:59:49;;;;;;;2.83;2.07;;;;;;;;;;20943473;28;20197;-64
2022/12/12 21:09:51;;;;;;;2.77;2.03;;;;;;;;;;20975080;28;20716;-64
2022/12/12 21:19:54;;;;;;;2.30;2.10;;;;;;;;;;20958793;28;20225;-64
2022/12/12 21:29:56;;;;;;;2.20;1.90;;;;;;;;;;20956770;28;20233;-64
2022/12/12 21:39:58;;;;;;;2.10;1.90;;;;;;;;;;20955569;28;20229;-64
2022/12/12 21:50:00;;;;;;;3.23;2.50;;;;;;;;;;20937573;28;20566;-64
2022/12/12 22:00:03;;;;;;;2.90;2.37;;;;;;;;;;20947189;28;20226;-63
2022/12/12 22:10:14;;;;;;;2.37;1.90;;;;;;;;;;20864174;28;20290;-64
2022/12/12 22:20:16;;;;;;;1.73;1.63;;;;;;;;;;20937635;28;20263;-64
2022/12/12 22:30:18;;;;;;;2.47;1.90;;;;;;;;;;20954109;28;20588;-64
2022/12/12 22:40:20;;;;;;;2.77;2.23;;;;;;;;;;20936696;28;20745;-64
2022/12/12 22:50:22;;;;;;;2.30;1.87;;;;;;;;;;20896582;28;20612;-64
2022/12/12 23:00:24;;;;;;;3.00;2.00;;;;;;;;;;20853177;28;20557;-64
2022/12/12 23:10:26;;;;;;;2.67;1.63;;;;;;;;;;20852589;28;20224;-64
2022/12/12 23:20:27;;;;;;;2.93;2.03;;;;;;;;;;20856670;28;20272;-64
2022/12/12 23:30:29;;;;;;;2.27;2.07;;;;;;;;;;20867720;28;20287;-64
2022/12/12 23:40:33;;;;;;;2.57;1.50;;;;;;;;;;20866309;28;20709;-64
2022/12/12 23:50:35;;;;;;;2.60;1.90;;;;;;;;;;20865776;28;20218;-64
